Hauptseite
METAR-TAF:

METAR-TAF

Flughäfen :

Flughafen Béziers

Béziers, Frankreich

Breite: 43-19N, Länge: 003-21E, Höhe: 17 m

Beobachtung

Neuester Wetterbericht von vor 37 Minuten, um 12:00 UTC
Wind 6 kt aus Ost, variierte zwischen Nordost und Südost
Temperatur 17°C
Luftfeuchtigkeit 48%
Luftdruck 1025 hPa
Sichtweite 10 km oder mehr

METAR: LFMU 081200Z AUTO 10006KT 050V140 9999 ///TCU 17/06 Q1025

Zeit: 14:37 (12:37 UTC)


TAF: fehlend

Wetterbeobachtungen und Prognosen von mehr als 4000 Flughäfen (METAR und TAF Bericht).

Die verfügbaren Stationen werden durch gelbe und rote Markierungen auf der Karte dargestellt.

Führen Sie die Maus auf sie, um den Namen der Station zu sehen.

Darauf klicken, um die Beobachtung von Wetterbeobachtungen und Prognosen zu sehen.

Um die Karte zu ändern : klicken Sie auf den grünen Tasten mit einem schwarzen Kreuz Zum Vergrößern, auf den grünen Button mit einem Gedankenstrich zu verkleinern, oder auf die grünen Pfeile für benachbarte Karten.


METAR-TAF: